Ana Sayfa
METAR-TAF:

METAR-TAF

Havaalanları :

Schenectady County Airport

Schenectady, New York, Amerika Birleşik Devletleri

Enlem: 42-51N, Boylam: 073-56W, yükseklik: 115 m

Güncel hava durumu gözlemi

Rapor saat 01:50 UTC de 59 dakika önce yapıldı.
Rüzgar kuzey/kuzeydoğudan 3 kt
Sıcaklık 22°C
Nem 94%
Basınç 1014 hPa
Görüş mesafesi: 16.1 km
Açık gökyüzü

METAR: KSCH 180150Z 02003KT 10SM CLR 22/21 A2993 RMK LAST

Saat: 22:49 (02:49 UTC)


TAF: eksik

4.000'den fazla havaalanı için hava durumu gözlemleri ve tahminleri (METAR ve TAF raporları).

Kullanılabilir istasyonlar harita üzerinde sarı ve kırmızı noktalarla gösterilir.

İstasyonun adını görmek için fareyi noktanın üzerinde gezdirin.

Sonrasında hava gözlem ve tahminlerini görmek için tıklayın.

Haritayı değiştirmek için: yaklaştırmak için siyah artı işaretli yeşil düğmeye ve uzaklaştırmak için de eksi işaretli düğmeye hızla tıklayın; bitişik haritalar için yeşil okları kullanın.


METAR-TAF: